createdAt,value
2019-01-12T00:01:11.484Z,85.32
2019-01-12T00:03:40.930Z,85.57
2019-01-12T00:06:10.402Z,85.68
2019-01-12T00:08:40.387Z,85.19
2019-01-12T00:11:09.890Z,85.26
2019-01-12T00:13:39.486Z,85.71
2019-01-12T00:16:08.920Z,85.33
2019-01-12T00:18:38.381Z,84.94
2019-01-12T00:21:07.828Z,84.51
2019-01-12T00:23:37.315Z,85.12
2019-01-12T00:26:06.919Z,84.79
2019-01-12T00:28:36.421Z,85.21
2019-01-12T00:31:06.062Z,85.11
2019-01-12T00:33:35.515Z,85.20
2019-01-12T00:36:05.060Z,84.93
2019-01-12T00:38:34.515Z,85.55
2019-01-12T00:41:04.589Z,85.36
2019-01-12T00:43:34.010Z,85.22
2019-01-12T00:46:03.597Z,85.02
2019-01-12T00:48:33.067Z,85.33
2019-01-12T00:51:02.525Z,85.25
2019-01-12T00:53:33.529Z,85.14
2019-01-12T00:56:03.160Z,85.15
2019-01-12T00:58:32.658Z,85.25
2019-01-12T01:01:02.095Z,85.57
2019-01-12T01:03:31.598Z,85.51
2019-01-12T01:06:01.056Z,86.01
2019-01-12T01:08:30.606Z,85.52
2019-01-12T01:11:00.045Z,85.75
2019-01-12T01:13:30.123Z,85.97
2019-01-12T01:15:59.686Z,86.09
2019-01-12T01:18:29.225Z,85.98
2019-01-12T01:20:58.661Z,85.64
2019-01-12T01:23:28.241Z,85.29
2019-01-12T01:25:57.760Z,85.75
2019-01-12T01:28:27.261Z,86.04
2019-01-12T01:30:56.772Z,85.82
2019-01-12T01:33:28.001Z,85.87
2019-01-12T01:35:57.553Z,85.81
2019-01-12T01:38:27.289Z,85.21
2019-01-12T01:40:56.744Z,85.11
2019-01-12T01:43:26.222Z,85.21
2019-01-12T01:45:56.247Z,85.52
2019-01-12T01:48:25.769Z,85.97
2019-01-12T01:50:55.256Z,85.75
2019-01-12T01:53:25.065Z,85.91
2019-01-12T01:55:54.515Z,85.50
2019-01-12T01:58:24.023Z,85.20
2019-01-12T02:00:53.487Z,85.46
2019-01-12T02:03:22.936Z,84.93
2019-01-12T02:05:52.492Z,84.77
2019-01-12T02:08:21.965Z,84.29
2019-01-12T02:10:51.431Z,83.83
2019-01-12T02:13:20.879Z,84.20
2019-01-12T02:15:50.334Z,83.84
2019-01-12T02:18:20.156Z,83.81
2019-01-12T02:20:49.630Z,83.83
2019-01-12T02:23:19.156Z,84.02
2019-01-12T02:25:48.626Z,83.51
2019-01-12T02:28:18.072Z,83.86
2019-01-12T02:30:47.567Z,83.93
2019-01-12T02:33:17.011Z,83.61
2019-01-12T02:35:46.480Z,83.03
2019-01-12T02:38:15.984Z,83.34
2019-01-12T02:40:45.519Z,83.50
2019-01-12T02:43:15.006Z,83.51
2019-01-12T02:45:44.459Z,82.68
2019-01-12T02:48:13.961Z,83.10
2019-01-12T02:50:43.806Z,83.22
2019-01-12T02:53:13.363Z,83.45
2019-01-12T02:55:42.816Z,83.10
2019-01-12T02:58:12.262Z,83.13
2019-01-12T03:00:41.747Z,83.37
2019-01-12T03:03:11.231Z,83.60
2019-01-12T03:05:40.748Z,83.12
2019-01-12T03:08:11.343Z,83.16
2019-01-12T03:10:40.862Z,83.11
2019-01-12T03:13:10.309Z,83.68
2019-01-12T03:15:41.421Z,83.64
2019-01-12T03:18:11.038Z,83.85
2019-01-12T03:20:40.529Z,83.53
2019-01-12T03:23:10.459Z,83.73
2019-01-12T03:25:39.970Z,84.04
2019-01-12T03:28:09.467Z,83.73
2019-01-12T03:30:38.976Z,83.47
2019-01-12T03:33:08.470Z,83.31
2019-01-12T03:35:37.991Z,83.51
2019-01-12T03:38:07.514Z,83.75
2019-01-12T03:40:36.999Z,83.50
2019-01-12T03:43:06.546Z,83.30
2019-01-12T03:45:36.016Z,83.12
2019-01-12T03:48:05.604Z,82.88
2019-01-12T03:50:35.111Z,82.90
2019-01-12T03:53:04.549Z,83.23
2019-01-12T03:55:34.441Z,83.35
2019-01-12T03:58:03.919Z,83.22
2019-01-12T04:00:33.433Z,83.04
2019-01-12T04:03:02.884Z,83.31
2019-01-12T04:05:32.412Z,83.35
2019-01-12T04:08:01.865Z,83.20
2019-01-12T04:10:31.346Z,82.77
2019-01-12T04:13:00.802Z,82.65
2019-01-12T04:15:30.401Z,82.61
2019-01-12T04:18:00.194Z,82.78
2019-01-12T04:20:29.649Z,82.80
2019-01-12T04:22:59.093Z,83.13
2019-01-12T04:25:33.522Z,83.46
2019-01-12T04:28:00.162Z,83.75
2019-01-12T04:30:29.617Z,83.31
2019-01-12T04:32:59.984Z,82.93
2019-01-12T04:35:29.462Z,82.89
2019-01-12T04:37:58.982Z,82.85
2019-01-12T04:40:28.471Z,82.99
2019-01-12T04:42:57.910Z,82.87
2019-01-12T04:45:27.436Z,82.76
2019-01-12T04:47:56.929Z,82.96
2019-01-12T04:50:26.377Z,82.87
2019-01-12T04:52:55.837Z,82.48
2019-01-12T04:55:25.285Z,81.78
2019-01-12T04:57:54.791Z,81.83
2019-01-12T05:00:24.250Z,81.42
2019-01-12T05:02:53.779Z,81.44
2019-01-12T05:05:23.233Z,81.95
2019-01-12T05:07:52.720Z,82.10
2019-01-12T05:10:22.172Z,81.92
2019-01-12T05:12:51.677Z,81.75
2019-01-12T05:15:21.128Z,82.32
2019-01-12T05:17:50.619Z,82.92
2019-01-12T05:20:20.481Z,82.54
2019-01-12T05:22:50.012Z,83.02
2019-01-12T05:25:20.080Z,83.34
2019-01-12T05:27:49.606Z,83.32
2019-01-12T05:30:20.643Z,83.43
2019-01-12T05:32:50.388Z,83.57
2019-01-12T05:35:20.303Z,83.88
2019-01-12T05:37:49.815Z,83.74
2019-01-12T05:40:19.343Z,84.11
2019-01-12T05:42:48.835Z,83.88
2019-01-12T05:45:18.303Z,83.62
2019-01-12T05:47:47.771Z,84.14
2019-01-12T05:50:17.358Z,84.46
2019-01-12T05:52:46.960Z,84.70
2019-01-12T05:55:16.551Z,84.97
2019-01-12T05:57:46.007Z,85.61
2019-01-12T06:00:18.940Z,86.01
2019-01-12T06:02:48.450Z,86.06
2019-01-12T06:05:17.899Z,85.72
2019-01-12T06:07:47.610Z,86.13
2019-01-12T06:10:17.229Z,85.74
2019-01-12T06:12:46.844Z,85.58
2019-01-12T06:15:16.640Z,85.69
2019-01-12T06:17:46.246Z,85.80
2019-01-12T06:20:16.648Z,86.03
2019-01-12T06:22:46.120Z,86.34
2019-01-12T06:25:15.729Z,86.77
2019-01-12T06:27:45.352Z,86.89
2019-01-12T06:30:17.960Z,86.80
2019-01-12T06:32:47.598Z,85.89
2019-01-12T06:35:17.190Z,86.05
2019-01-12T06:37:46.726Z,85.82
2019-01-12T06:40:18.015Z,85.70
2019-01-12T06:42:47.978Z,85.74
2019-01-12T06:45:18.556Z,85.44
2019-01-12T06:47:48.094Z,85.58
2019-01-12T06:50:20.057Z,85.42
2019-01-12T06:52:49.533Z,85.12
2019-01-12T06:55:19.140Z,84.99
2019-01-12T06:57:48.622Z,85.13
2019-01-12T07:00:19.550Z,85.00
2019-01-12T07:02:49.101Z,84.46
2019-01-12T07:05:18.703Z,84.50
2019-01-12T07:07:50.056Z,84.69
2019-01-12T07:10:19.501Z,84.82
2019-01-12T07:12:48.988Z,84.89
2019-01-12T07:15:18.889Z,84.23
2019-01-12T07:17:48.370Z,84.50
2019-01-12T07:20:18.097Z,85.12
2019-01-12T07:22:47.607Z,85.06
2019-01-12T07:25:17.058Z,85.13
2019-01-12T07:27:47.554Z,85.73
2019-01-12T07:30:20.789Z,85.96
2019-01-12T07:32:50.548Z,85.70
2019-01-12T07:35:20.075Z,85.76
2019-01-12T07:37:49.566Z,85.99
2019-01-12T07:40:19.100Z,85.70
2019-01-12T07:42:48.674Z,85.66
2019-01-12T07:45:18.184Z,85.42
2019-01-12T07:47:47.707Z,85.49
2019-01-12T07:50:19.170Z,85.30
2019-01-12T07:52:48.740Z,85.01
2019-01-12T07:55:18.248Z,85.15
2019-01-12T07:57:47.703Z,85.02
2019-01-12T08:00:21.390Z,84.94
2019-01-12T08:02:50.850Z,84.76
2019-01-12T08:05:20.980Z,84.60
2019-01-12T08:07:51.627Z,84.73
2019-01-12T08:10:23.195Z,84.77
2019-01-12T08:12:52.776Z,85.17
2019-01-12T08:15:22.399Z,84.94
2019-01-12T08:17:52.277Z,85.26
2019-01-12T08:20:22.195Z,85.25
2019-01-12T08:22:51.625Z,85.08
2019-01-12T08:25:21.098Z,85.54
2019-01-12T08:27:50.603Z,85.76
2019-01-12T08:30:20.192Z,85.83
2019-01-12T08:32:49.723Z,85.74
2019-01-12T08:35:19.262Z,84.89
2019-01-12T08:37:48.810Z,84.99
2019-01-12T08:40:18.341Z,85.12
2019-01-12T08:42:47.937Z,85.41
2019-01-12T08:45:17.679Z,86.75
2019-01-12T08:47:47.163Z,84.41
2019-01-12T08:50:18.437Z,84.04
2019-01-12T08:52:48.047Z,83.77
2019-01-12T08:55:18.141Z,84.17
2019-01-12T08:57:47.825Z,84.29
2019-01-12T09:00:20.183Z,84.41
2019-01-12T09:02:49.768Z,84.53
2019-01-12T09:05:19.278Z,84.39
2019-01-12T09:07:48.897Z,84.87
2019-01-12T09:10:19.740Z,84.79
2019-01-12T09:12:49.646Z,84.71
2019-01-12T09:15:19.156Z,84.66
2019-01-12T09:17:48.697Z,84.64
2019-01-12T09:20:18.209Z,85.04
2019-01-12T09:22:47.691Z,85.16
2019-01-12T09:25:17.319Z,85.56
2019-01-12T09:27:46.836Z,85.50
2019-01-12T09:30:21.175Z,85.29
2019-01-12T09:32:51.076Z,85.30
2019-01-12T09:35:20.579Z,84.88
2019-01-12T09:37:50.178Z,84.93
2019-01-12T09:40:19.965Z,85.03
2019-01-12T09:42:49.521Z,85.27
2019-01-12T09:45:19.662Z,85.07
2019-01-12T09:47:49.182Z,84.87
2019-01-12T09:50:20.186Z,84.97
2019-01-12T09:52:51.343Z,84.79
2019-01-12T09:55:21.000Z,84.29
2019-01-12T09:57:50.541Z,83.73
2019-01-12T10:00:23.193Z,83.67
2019-01-12T10:02:53.231Z,83.74
2019-01-12T10:05:23.452Z,83.28
2019-01-12T10:07:53.006Z,82.91
2019-01-12T10:10:23.107Z,83.72
2019-01-12T10:12:52.619Z,83.60
2019-01-12T10:15:22.216Z,83.46
2019-01-12T10:17:51.849Z,83.48
2019-01-12T10:20:21.374Z,83.53
2019-01-12T10:22:51.263Z,83.10
2019-01-12T10:25:20.857Z,83.33
2019-01-12T10:27:50.320Z,83.27
2019-01-12T10:30:22.898Z,83.31
2019-01-12T10:32:52.424Z,83.33
2019-01-12T10:35:21.958Z,83.39
2019-01-12T10:37:51.876Z,83.49
2019-01-12T10:40:21.861Z,83.54
2019-01-12T10:42:55.256Z,83.97
2019-01-12T10:45:25.482Z,83.81
2019-01-12T10:47:55.043Z,83.44
2019-01-12T10:50:31.641Z,83.33
2019-01-12T10:53:01.271Z,83.58
2019-01-12T10:55:32.377Z,83.56
2019-01-12T10:58:01.887Z,83.82
2019-01-12T11:00:34.772Z,83.34
2019-01-12T11:03:04.456Z,83.37
2019-01-12T11:05:34.131Z,83.50
2019-01-12T11:08:04.065Z,83.46
2019-01-12T11:10:33.571Z,83.57
2019-01-12T11:13:03.043Z,83.17
2019-01-12T11:15:32.654Z,82.33
2019-01-12T11:18:02.686Z,82.81
2019-01-12T11:20:32.710Z,82.49
2019-01-12T11:23:02.401Z,81.59
2019-01-12T11:25:31.921Z,82.02
2019-01-12T11:28:01.371Z,82.35
2019-01-12T11:30:31.042Z,81.68
2019-01-12T11:33:00.521Z,81.37
2019-01-12T11:35:31.239Z,81.08
2019-01-12T11:38:00.766Z,80.73
2019-01-12T11:40:30.441Z,80.27
2019-01-12T11:42:59.969Z,80.36
2019-01-12T11:45:29.597Z,80.21
2019-01-12T11:48:00.869Z,80.36
2019-01-12T11:50:30.376Z,80.24
2019-01-12T11:53:01.209Z,79.47
2019-01-12T11:55:30.875Z,79.96
2019-01-12T11:58:00.472Z,79.01
2019-01-12T12:00:30.629Z,78.64
2019-01-12T12:03:00.322Z,78.52
2019-01-12T12:05:31.047Z,78.59
2019-01-12T12:08:00.598Z,78.95
2019-01-12T12:10:31.210Z,78.37
2019-01-12T12:13:00.769Z,78.40
2019-01-12T12:15:30.457Z,78.27
2019-01-12T12:17:59.977Z,77.60
2019-01-12T12:20:29.708Z,77.11
2019-01-12T12:22:59.297Z,76.71
2019-01-12T12:25:28.955Z,76.47
2019-01-12T12:27:59.108Z,77.37
2019-01-12T12:30:30.632Z,77.96
2019-01-12T12:33:01.174Z,78.01
2019-01-12T12:35:37.461Z,78.12
2019-01-12T12:38:02.092Z,77.70
2019-01-12T12:40:31.781Z,78.07
2019-01-12T12:43:01.242Z,76.89
2019-01-12T12:45:31.705Z,77.10
2019-01-12T12:48:01.255Z,76.97
2019-01-12T12:50:30.906Z,76.52
2019-01-12T12:53:00.431Z,76.99
2019-01-12T12:55:31.686Z,77.18
2019-01-12T12:58:02.282Z,77.25
2019-01-12T13:00:31.931Z,77.10
2019-01-12T13:03:01.987Z,77.55
2019-01-12T13:05:31.903Z,77.41
2019-01-12T13:08:01.479Z,77.61
2019-01-12T13:10:30.990Z,77.56
2019-01-12T13:13:00.565Z,76.84
2019-01-12T13:15:31.712Z,77.35
2019-01-12T13:18:01.216Z,77.73
2019-01-12T13:20:30.790Z,77.85
2019-01-12T13:23:01.297Z,77.79
2019-01-12T13:25:30.842Z,78.08
2019-01-12T13:28:00.374Z,78.37
2019-01-12T13:30:30.086Z,77.91
2019-01-12T13:32:59.715Z,78.31
2019-01-12T13:35:29.180Z,77.79
2019-01-12T13:37:59.287Z,77.60
2019-01-12T13:40:29.695Z,77.63
2019-01-12T13:42:59.839Z,77.42
2019-01-12T13:45:29.850Z,77.33
2019-01-12T13:47:59.381Z,77.52
2019-01-12T13:50:29.481Z,78.05
2019-01-12T13:52:59.058Z,78.24
2019-01-12T13:55:28.729Z,78.38
2019-01-12T13:58:00.481Z,78.49
2019-01-12T14:00:34.547Z,78.97
2019-01-12T14:03:05.440Z,78.36
2019-01-12T14:05:34.989Z,78.71
2019-01-12T14:08:07.047Z,80.17
2019-01-12T14:10:37.546Z,77.46
2019-01-12T14:13:07.567Z,77.68
2019-01-12T14:15:37.283Z,77.46
2019-01-12T14:18:08.678Z,77.57
2019-01-12T14:20:41.661Z,77.79
2019-01-12T14:23:11.326Z,77.30
2019-01-12T14:25:40.969Z,77.76
2019-01-12T14:28:10.505Z,77.44
2019-01-12T14:30:43.426Z,77.14
2019-01-12T14:33:12.981Z,77.08
2019-01-12T14:35:42.464Z,76.84
2019-01-12T14:38:12.137Z,76.88
2019-01-12T14:40:41.581Z,76.38
2019-01-12T14:43:11.156Z,76.98
2019-01-12T14:45:40.854Z,77.41
2019-01-12T14:48:10.375Z,77.53
2019-01-12T14:50:39.817Z,77.30
2019-01-12T14:53:09.748Z,77.36
2019-01-12T14:55:39.755Z,76.77
2019-01-12T14:58:09.301Z,77.27
2019-01-12T15:00:38.891Z,77.47
2019-01-12T15:03:08.438Z,76.96
2019-01-12T15:05:38.065Z,77.57
2019-01-12T15:08:07.652Z,77.99
2019-01-12T15:10:37.150Z,77.68
2019-01-12T15:13:07.589Z,77.94
2019-01-12T15:15:37.140Z,77.85
2019-01-12T15:18:08.656Z,78.17
2019-01-12T15:20:38.143Z,77.81
2019-01-12T15:23:07.588Z,78.59
2019-01-12T15:25:38.108Z,78.14
2019-01-12T15:28:09.320Z,78.59
2019-01-12T15:30:38.807Z,78.95
2019-01-12T15:33:08.347Z,79.43
2019-01-12T15:35:37.911Z,81.37
2019-01-12T15:38:07.447Z,78.61
2019-01-12T15:40:36.907Z,79.13
2019-01-12T15:43:06.375Z,79.28
2019-01-12T15:45:35.928Z,79.32
2019-01-12T15:48:05.726Z,79.41
2019-01-12T15:50:35.254Z,79.66
2019-01-12T15:53:04.862Z,79.79
2019-01-12T15:55:34.313Z,79.70
2019-01-12T15:58:04.376Z,79.60
2019-01-12T16:00:35.816Z,79.62
2019-01-12T16:03:05.444Z,79.91
2019-01-12T16:05:35.044Z,79.55
2019-01-12T16:08:04.611Z,79.97
2019-01-12T16:10:34.161Z,79.86
2019-01-12T16:13:03.670Z,79.72
2019-01-12T16:15:33.151Z,79.70
2019-01-12T16:18:02.692Z,79.13
2019-01-12T16:20:36.043Z,78.46
2019-01-12T16:23:06.039Z,79.21
2019-01-12T16:25:35.598Z,78.84
2019-01-12T16:28:05.255Z,79.30
2019-01-12T16:30:34.695Z,78.89
2019-01-12T16:33:06.045Z,78.74
2019-01-12T16:35:35.664Z,78.59
2019-01-12T16:38:05.622Z,78.70
2019-01-12T16:40:35.104Z,78.19
2019-01-12T16:43:05.437Z,78.32
2019-01-12T16:45:34.906Z,78.64
2019-01-12T16:48:04.541Z,77.71
2019-01-12T16:50:34.066Z,77.72
2019-01-12T16:53:03.672Z,77.96
2019-01-12T16:55:33.300Z,77.54
2019-01-12T16:58:02.817Z,77.70
2019-01-12T17:00:32.389Z,77.48
2019-01-12T17:03:01.952Z,77.50
2019-01-12T17:05:32.001Z,77.74
2019-01-12T17:08:01.701Z,77.18
2019-01-12T17:10:32.123Z,77.43
2019-01-12T17:13:01.815Z,77.17
2019-01-12T17:15:34.853Z,76.82
2019-01-12T17:18:02.545Z,76.92
2019-01-12T17:20:32.057Z,76.84
2019-01-12T17:23:01.554Z,76.90
2019-01-12T17:25:31.147Z,76.83
2019-01-12T17:28:00.621Z,76.66
2019-01-12T17:30:30.187Z,76.53
2019-01-12T17:32:59.800Z,76.22
2019-01-12T17:35:29.489Z,76.01
2019-01-12T17:37:59.867Z,75.52
2019-01-12T17:40:29.884Z,75.47
2019-01-12T17:42:59.913Z,75.36
2019-01-12T17:45:30.021Z,74.89
2019-01-12T17:47:59.496Z,74.19
2019-01-12T17:50:29.178Z,74.21
2019-01-12T17:52:58.630Z,73.74
2019-01-12T17:55:28.284Z,73.86
2019-01-12T17:57:58.161Z,73.13
2019-01-12T18:00:30.060Z,73.56
2019-01-12T18:02:59.558Z,73.25
2019-01-12T18:05:29.096Z,73.08
2019-01-12T18:07:58.662Z,72.74
2019-01-12T18:10:28.244Z,73.05
2019-01-12T18:12:57.726Z,72.67
2019-01-12T18:15:27.417Z,72.69
2019-01-12T18:17:57.273Z,72.72
2019-01-12T18:20:27.289Z,72.34
2019-01-12T18:22:57.100Z,72.56
2019-01-12T18:25:27.130Z,72.52
2019-01-12T18:27:57.233Z,72.69
2019-01-12T18:30:27.891Z,73.52
2019-01-12T18:32:57.359Z,74.10
2019-01-12T18:35:26.887Z,74.67
2019-01-12T18:37:56.401Z,75.59
2019-01-12T18:40:25.960Z,76.50
2019-01-12T18:42:55.465Z,76.67
2019-01-12T18:45:24.972Z,77.46
2019-01-12T18:47:54.485Z,78.96
2019-01-12T18:50:26.438Z,80.16
2019-01-12T18:52:56.243Z,80.46
2019-01-12T18:55:25.867Z,80.52
2019-01-12T18:57:55.329Z,81.30
2019-01-12T19:00:29.369Z,82.37
2019-01-12T19:02:59.353Z,83.19
2019-01-12T19:05:29.351Z,83.12
2019-01-12T19:07:59.772Z,83.84
2019-01-12T19:10:29.811Z,84.41
2019-01-12T19:12:59.605Z,84.01
2019-01-12T19:15:30.439Z,84.50
2019-01-12T19:18:00.356Z,85.43
2019-01-12T19:20:30.200Z,85.40
2019-01-12T19:23:00.089Z,85.82
2019-01-12T19:25:30.155Z,85.88
2019-01-12T19:28:00.017Z,86.24
2019-01-12T19:30:29.853Z,85.99
2019-01-12T19:32:59.761Z,85.57
2019-01-12T19:35:29.977Z,85.42
2019-01-12T19:37:59.907Z,85.87
2019-01-12T19:40:29.903Z,85.51
2019-01-12T19:42:59.715Z,85.62
2019-01-12T19:45:30.483Z,85.80
2019-01-12T19:48:00.569Z,86.34
2019-01-12T19:50:30.800Z,86.70
2019-01-12T19:53:00.605Z,86.64
2019-01-12T19:55:30.527Z,86.72
2019-01-12T19:58:00.437Z,87.03
2019-01-12T20:00:30.966Z,87.37
2019-01-12T20:03:00.904Z,87.24
2019-01-12T20:05:31.922Z,87.62
2019-01-12T20:08:04.708Z,87.52
2019-01-12T20:10:35.235Z,87.69
2019-01-12T20:13:05.359Z,87.70
2019-01-12T20:15:35.271Z,88.15
2019-01-12T20:18:05.205Z,88.16
2019-01-12T20:20:35.330Z,88.50
2019-01-12T20:23:05.222Z,88.56
2019-01-12T20:25:35.474Z,88.75
2019-01-12T20:28:05.360Z,88.31
2019-01-12T20:30:51.479Z,88.52
2019-01-12T20:33:38.059Z,88.88
2019-01-12T20:36:32.580Z,88.70
2019-01-12T20:39:22.232Z,89.42
2019-01-12T20:42:16.218Z,89.04
2019-01-12T20:45:20.775Z,89.10
2019-01-12T20:48:10.215Z,88.69
2019-01-12T20:50:59.904Z,88.76
2019-01-12T20:53:43.649Z,88.75
2019-01-12T20:56:36.502Z,88.76
2019-01-12T20:59:28.273Z,88.87
2019-01-12T21:02:26.650Z,88.98
2019-01-12T21:05:12.603Z,89.07
2019-01-12T21:08:04.162Z,88.99
2019-01-12T21:11:02.021Z,89.30
2019-01-12T21:13:41.785Z,89.12
2019-01-12T21:16:15.929Z,89.09
2019-01-12T21:18:45.408Z,88.93
2019-01-12T21:21:15.105Z,88.85
2019-01-12T21:23:44.644Z,88.95
2019-01-12T21:26:15.773Z,88.56
2019-01-12T21:28:45.306Z,88.54
2019-01-12T21:31:14.782Z,88.66
2019-01-12T21:33:44.338Z,88.92
2019-01-12T21:36:15.452Z,89.26
2019-01-12T21:38:45.236Z,89.08
2019-01-12T21:41:14.828Z,89.14
2019-01-12T21:43:44.415Z,88.96
2019-01-12T21:46:15.162Z,88.95
2019-01-12T21:48:44.699Z,88.64
2019-01-12T21:51:14.247Z,89.38
2019-01-12T21:53:43.768Z,88.97
2019-01-12T21:56:13.252Z,89.10
2019-01-12T21:58:43.277Z,88.95
2019-01-12T22:01:13.394Z,88.83
2019-01-12T22:03:43.347Z,88.71
2019-01-12T22:06:13.355Z,88.56
2019-01-12T22:08:43.552Z,88.93
2019-01-12T22:11:19.431Z,89.38
2019-01-12T22:13:49.423Z,89.23
2019-01-12T22:16:19.461Z,89.08
2019-01-12T22:18:49.562Z,89.25
2019-01-12T22:21:19.496Z,89.60
2019-01-12T22:23:49.626Z,89.41
2019-01-12T22:26:19.739Z,90.01
2019-01-12T22:28:49.735Z,90.13
2019-01-12T22:31:19.855Z,90.14
2019-01-12T22:33:49.978Z,89.85
2019-01-12T22:36:20.122Z,90.36
2019-01-12T22:38:50.120Z,90.10
2019-01-12T22:41:20.151Z,89.98
2019-01-12T22:43:50.356Z,89.96
2019-01-12T22:46:20.485Z,89.95
2019-01-12T22:48:50.596Z,89.80
2019-01-12T22:51:20.619Z,89.63
2019-01-12T22:53:50.548Z,89.59
2019-01-12T22:56:20.567Z,89.34
2019-01-12T22:58:50.769Z,89.67
2019-01-12T23:01:25.823Z,89.59
2019-01-12T23:03:56.030Z,89.43
2019-01-12T23:06:27.190Z,89.06
2019-01-12T23:08:57.411Z,89.04
2019-01-12T23:11:27.532Z,89.67
2019-01-12T23:13:57.633Z,89.34
2019-01-12T23:16:27.688Z,89.69
2019-01-12T23:18:57.294Z,89.57
2019-01-12T23:21:26.754Z,89.67
2019-01-12T23:23:56.235Z,89.67
2019-01-12T23:26:25.695Z,89.25
2019-01-12T23:28:55.165Z,89.52
2019-01-12T23:31:24.592Z,89.22
2019-01-12T23:33:54.026Z,89.08
2019-01-12T23:36:23.856Z,89.01
2019-01-12T23:38:53.273Z,89.25
2019-01-12T23:41:22.716Z,89.07
2019-01-12T23:43:52.222Z,88.94
2019-01-12T23:46:21.684Z,88.40
2019-01-12T23:48:51.104Z,87.81
2019-01-12T23:51:20.534Z,88.03
2019-01-12T23:53:49.974Z,88.60
2019-01-12T23:56:19.411Z,88.59
2019-01-12T23:58:48.846Z,88.88
